Marcus, North Carolina
Current Conditions -  °F | °C
As of 7:35 AM on Wednesday 26 Nov 2014 (Local Time) from KSOP Reporting Station
Overcast Overcast  
Wind Chill: 39°   Ceiling: 800
Heat Index: 45°   Visibility: 8mi
Dew Point: -6°   Wind: 12mph
Humidity: 12%   Direction: 340°NNW
Pressure: 29.92"   Gusts: 18mph
Location:  35.2008°N, 79.6471°W
Report Text: KSOP 261235Z AUTO 34010G16KT 8SM BKN008 OVC014 07/M21 A2992 RMK AO1 P0003
Loading
Personal Weather Stations






























Interactive Weather Map New forecast layout! Learn more

10-Day Weather Forecast

Advertisements
Track Severe Weather on mobile